createdAt,value
2022-09-16T00:00:46.263Z,99659.94
2022-09-16T00:03:13.688Z,99667.53
2022-09-16T00:05:51.464Z,99678.91
2022-09-16T00:08:19.229Z,99678.03
2022-09-16T00:10:45.864Z,99675.13
2022-09-16T00:13:13.114Z,99680.88
2022-09-16T00:15:47.817Z,99686.44
2022-09-16T00:18:14.754Z,99686.41
2022-09-16T00:20:46.589Z,99686.41
2022-09-16T00:23:13.253Z,99678.97
2022-09-16T00:25:39.919Z,99682.41
2022-09-16T00:28:06.550Z,99681.34
2022-09-16T00:30:33.352Z,99676.41
2022-09-16T00:33:02.304Z,99673.94
2022-09-16T00:35:28.901Z,99672.91
2022-09-16T00:37:55.579Z,99664.88
2022-09-16T00:40:23.022Z,99661.16
2022-09-16T00:42:49.676Z,99653.56
2022-09-16T00:45:20.654Z,99644.91
2022-09-16T00:47:52.867Z,99651.16
2022-09-16T00:50:25.473Z,99648.09
2022-09-16T00:52:52.712Z,99650.34
2022-09-16T00:55:24.689Z,99650.34
2022-09-16T00:57:52.131Z,99651.56
2022-09-16T01:00:18.854Z,99651.75
2022-09-16T01:02:46.268Z,99646.69
2022-09-16T01:05:16.383Z,99645.03
2022-09-16T01:07:48.662Z,99639.53
2022-09-16T01:10:18.020Z,99633.94
2022-09-16T01:12:46.649Z,99647.13
2022-09-16T01:15:14.644Z,99640.72
2022-09-16T01:18:19.684Z,99644.88
2022-09-16T01:21:20.201Z,99650.25
2022-09-16T01:23:57.068Z,99651.09
2022-09-16T01:27:01.932Z,99650.88
2022-09-16T01:29:59.413Z,99656.66
2022-09-16T01:32:37.417Z,99653.22
2022-09-16T01:35:09.725Z,99657.69
2022-09-16T01:37:48.458Z,99663.00
2022-09-16T01:40:21.178Z,99664.06
2022-09-16T01:43:17.188Z,99668.41
2022-09-16T01:45:55.146Z,99664.50
2022-09-16T01:48:43.178Z,99675.63
2022-09-16T01:51:22.415Z,99666.56
2022-09-16T01:54:07.748Z,99670.88
2022-09-16T01:56:53.121Z,99666.56
2022-09-16T01:59:42.643Z,99672.34
2022-09-16T02:02:11.640Z,99672.34
2022-09-16T02:04:44.466Z,99680.16
2022-09-16T02:07:15.654Z,99672.19
2022-09-16T02:09:46.122Z,99679.78
2022-09-16T02:12:21.016Z,99675.41
2022-09-16T02:14:50.957Z,99675.03
2022-09-16T02:17:20.752Z,99673.38
2022-09-16T02:19:57.292Z,99674.59
2022-09-16T02:22:33.157Z,99678.06
2022-09-16T02:25:02.985Z,99681.41
2022-09-16T02:27:30.833Z,99680.38
2022-09-16T02:30:02.087Z,99686.34
2022-09-16T02:32:34.143Z,99684.19
2022-09-16T02:35:02.099Z,99680.88
2022-09-16T02:37:37.425Z,99683.13
2022-09-16T02:40:07.869Z,99675.50
2022-09-16T02:42:34.785Z,99681.81
2022-09-16T02:45:02.947Z,99675.81
2022-09-16T02:47:59.059Z,99685.31
2022-09-16T02:50:39.982Z,99674.38
2022-09-16T02:53:38.140Z,99680.63
2022-09-16T02:56:11.550Z,99684.34
2022-09-16T02:58:38.426Z,99685.78
2022-09-16T03:01:05.590Z,99675.97
2022-09-16T03:03:32.231Z,99688.91
2022-09-16T03:06:27.017Z,99684.63
2022-09-16T03:08:56.515Z,99682.03
2022-09-16T03:11:32.967Z,99689.19
2022-09-16T03:14:05.401Z,99685.41
2022-09-16T03:16:46.180Z,99682.41
2022-09-16T03:19:48.110Z,99674.75
2022-09-16T03:22:29.201Z,99665.63
2022-09-16T03:25:10.520Z,99663.19
2022-09-16T03:27:43.211Z,99662.78
2022-09-16T03:30:11.355Z,99658.44
2022-09-16T03:32:41.700Z,99667.91
2022-09-16T03:35:15.363Z,99656.78
2022-09-16T03:37:42.850Z,99661.31
2022-09-16T03:40:13.622Z,99665.47
2022-09-16T03:42:41.552Z,99667.06
2022-09-16T03:45:10.715Z,99660.88
2022-09-16T03:47:37.336Z,99670.13
2022-09-16T03:50:04.702Z,99669.13
2022-09-16T03:52:31.367Z,99661.28
2022-09-16T03:54:58.025Z,99663.97
2022-09-16T03:57:24.638Z,99673.25
2022-09-16T03:59:51.177Z,99655.59
2022-09-16T04:02:17.757Z,99653.72
2022-09-16T04:04:51.676Z,99657.00
2022-09-16T04:07:18.390Z,99659.31
2022-09-16T04:09:44.928Z,99658.84
2022-09-16T04:12:11.561Z,99647.56
2022-09-16T04:14:38.199Z,99645.47
2022-09-16T04:17:07.912Z,99634.38
2022-09-16T04:19:34.521Z,99641.34
2022-09-16T04:22:01.137Z,99649.78
2022-09-16T04:24:27.760Z,99646.72
2022-09-16T04:26:54.346Z,99655.16
2022-09-16T04:29:28.396Z,99653.72
2022-09-16T04:31:55.463Z,99662.16
2022-09-16T04:34:22.121Z,99660.28
2022-09-16T04:36:48.776Z,99647.91
2022-09-16T04:39:15.485Z,99651.88
2022-09-16T04:41:42.181Z,99646.28
2022-09-16T04:44:10.410Z,99652.94
2022-09-16T04:46:37.085Z,99652.56
2022-09-16T04:49:03.934Z,99648.03
2022-09-16T04:51:32.151Z,99643.50
2022-09-16T04:54:02.660Z,99650.44
2022-09-16T04:56:31.437Z,99655.59
2022-09-16T04:59:03.224Z,99656.19
2022-09-16T05:01:32.441Z,99653.28
2022-09-16T05:04:01.300Z,99645.84
2022-09-16T05:06:36.694Z,99636.41
2022-09-16T05:09:03.740Z,99634.28
2022-09-16T05:11:35.960Z,99644.75
2022-09-16T05:14:04.185Z,99648.31
2022-09-16T05:16:32.492Z,99643.41
2022-09-16T05:19:00.505Z,99648.34
2022-09-16T05:21:28.284Z,99652.66
2022-09-16T05:23:59.314Z,99641.47
2022-09-16T05:26:28.675Z,99640.91
2022-09-16T05:28:55.329Z,99634.75
2022-09-16T05:31:24.408Z,99635.38
2022-09-16T05:34:11.123Z,99648.16
2022-09-16T05:36:39.144Z,99647.00
2022-09-16T05:39:24.617Z,99640.25
2022-09-16T05:42:00.019Z,99648.47
2022-09-16T05:44:27.828Z,99639.47
2022-09-16T05:46:55.226Z,99641.53
2022-09-16T05:49:23.482Z,99640.13
2022-09-16T05:51:50.548Z,99638.25
2022-09-16T05:54:20.549Z,99637.59
2022-09-16T05:56:47.675Z,99630.41
2022-09-16T05:59:14.919Z,99639.75
2022-09-16T06:01:41.944Z,99622.69
2022-09-16T06:04:12.085Z,99609.91
2022-09-16T06:06:40.713Z,99605.94
2022-09-16T06:09:12.836Z,99612.78
2022-09-16T06:11:41.849Z,99594.41
2022-09-16T06:14:09.098Z,99587.47
2022-09-16T06:16:36.253Z,99598.84
2022-09-16T06:19:05.552Z,99587.88
2022-09-16T06:21:32.211Z,99595.88
2022-09-16T06:23:58.819Z,99588.47
2022-09-16T06:26:27.074Z,99574.09
2022-09-16T06:28:55.693Z,99570.31
2022-09-16T06:31:24.241Z,99567.25
2022-09-16T06:33:51.214Z,99566.09
2022-09-16T06:36:20.045Z,99564.06
2022-09-16T06:38:47.290Z,99565.44
2022-09-16T06:41:17.108Z,99568.06
2022-09-16T06:43:44.417Z,99566.88
2022-09-16T06:46:16.446Z,99572.63
2022-09-16T06:48:50.514Z,99556.13
2022-09-16T06:51:19.439Z,99564.03
2022-09-16T06:53:46.858Z,99568.09
2022-09-16T06:56:15.119Z,99562.75
2022-09-16T06:58:42.979Z,99557.72
2022-09-16T07:01:15.008Z,99556.25
2022-09-16T07:03:46.785Z,99555.59
2022-09-16T07:06:20.341Z,99548.13
2022-09-16T07:08:47.618Z,99563.50
2022-09-16T07:11:15.574Z,99553.78
2022-09-16T07:13:43.331Z,99557.91
2022-09-16T07:16:14.014Z,99559.03
2022-09-16T07:18:41.858Z,99555.47
2022-09-16T07:21:13.934Z,99546.84
2022-09-16T07:23:41.257Z,99551.03
2022-09-16T07:26:07.909Z,99551.50
2022-09-16T07:28:35.360Z,99550.47
2022-09-16T07:31:03.696Z,99543.47
2022-09-16T07:33:33.243Z,99550.47
2022-09-16T07:36:00.526Z,99553.28
2022-09-16T07:38:27.665Z,99553.03
2022-09-16T07:40:54.295Z,99541.09
2022-09-16T07:43:21.159Z,99541.25
2022-09-16T07:45:56.144Z,99546.97
2022-09-16T07:48:23.113Z,99543.94
2022-09-16T07:51:01.186Z,99549.25
2022-09-16T07:53:29.719Z,99547.47
2022-09-16T07:56:08.021Z,99543.19
2022-09-16T07:58:34.778Z,99548.28
2022-09-16T08:01:04.718Z,99550.88
2022-09-16T08:03:36.261Z,99538.66
2022-09-16T08:06:14.463Z,99542.00
2022-09-16T08:08:41.803Z,99546.34
2022-09-16T08:11:09.159Z,99547.59
2022-09-16T08:13:38.995Z,99546.81
2022-09-16T08:16:19.544Z,99536.38
2022-09-16T08:18:47.640Z,99534.31
2022-09-16T08:21:16.595Z,99542.91
2022-09-16T08:23:43.640Z,99552.31
2022-09-16T08:26:18.670Z,99539.25
2022-09-16T08:29:04.914Z,99527.88
2022-09-16T08:31:33.160Z,99550.16
2022-09-16T08:34:06.025Z,99545.56
2022-09-16T08:36:33.745Z,99538.25
2022-09-16T08:39:00.676Z,99532.59
2022-09-16T08:41:46.914Z,99534.75
2022-09-16T08:44:28.606Z,99537.22
2022-09-16T08:47:01.852Z,99527.72
2022-09-16T08:49:45.579Z,99526.56
2022-09-16T08:52:30.129Z,99524.25
2022-09-16T08:55:18.796Z,99522.06
2022-09-16T08:58:14.683Z,99517.94
2022-09-16T09:00:44.223Z,99510.88
2022-09-16T09:03:28.603Z,99523.63
2022-09-16T09:05:56.980Z,99523.97
2022-09-16T09:08:29.950Z,99521.75
2022-09-16T09:11:07.912Z,99513.91
2022-09-16T09:13:57.112Z,99515.88
2022-09-16T09:16:42.694Z,99512.47
2022-09-16T09:19:13.617Z,99519.56
2022-09-16T09:22:04.525Z,99515.94
2022-09-16T09:24:44.267Z,99510.00
2022-09-16T09:27:42.544Z,99508.13
2022-09-16T09:30:26.888Z,99501.25
2022-09-16T09:33:44.500Z,99505.34
2022-09-16T09:36:28.690Z,99506.09
2022-09-16T09:39:14.143Z,99497.31
2022-09-16T09:41:55.313Z,99490.34
2022-09-16T09:44:46.614Z,99493.28
2022-09-16T09:47:21.936Z,99495.09
2022-09-16T09:49:56.588Z,99487.66
2022-09-16T09:52:54.136Z,99481.91
2022-09-16T09:55:24.343Z,99483.81
2022-09-16T09:58:08.938Z,99475.88
2022-09-16T10:00:35.590Z,99478.84
2022-09-16T10:03:06.329Z,99468.81
2022-09-16T10:05:33.975Z,99473.19
2022-09-16T10:08:30.997Z,99471.31
2022-09-16T10:11:01.666Z,99482.97
2022-09-16T10:13:30.259Z,99475.88
2022-09-16T10:16:14.519Z,99464.56
2022-09-16T10:18:41.232Z,99472.94
2022-09-16T10:21:09.966Z,99466.16
2022-09-16T10:23:39.142Z,99461.63
2022-09-16T10:26:06.005Z,99460.50
2022-09-16T10:28:33.170Z,99455.91
2022-09-16T10:31:00.996Z,99446.41
2022-09-16T10:33:34.611Z,99457.75
2022-09-16T10:36:03.266Z,99462.44
2022-09-16T10:38:39.780Z,99456.41
2022-09-16T10:41:14.606Z,99447.81
2022-09-16T10:43:48.110Z,99450.09
2022-09-16T10:46:16.219Z,99449.94
2022-09-16T10:48:43.629Z,99454.94
2022-09-16T10:51:23.151Z,99461.59
2022-09-16T10:53:57.291Z,99480.22
2022-09-16T10:56:29.376Z,99475.50
2022-09-16T10:59:09.702Z,99471.88
2022-09-16T11:02:04.457Z,99463.53
2022-09-16T11:05:08.362Z,99458.03
2022-09-16T11:07:59.778Z,99460.22
2022-09-16T11:10:49.671Z,99438.91
2022-09-16T11:13:21.137Z,99437.16
2022-09-16T11:16:09.500Z,99428.78
2022-09-16T11:18:36.074Z,99431.97
2022-09-16T11:21:08.840Z,99435.00
2022-09-16T11:24:03.079Z,99431.66
2022-09-16T11:27:00.679Z,99421.38
2022-09-16T11:29:33.239Z,99427.03
2022-09-16T11:32:02.831Z,99444.31
2022-09-16T11:34:57.936Z,99473.13
2022-09-16T11:37:33.806Z,99489.28
2022-09-16T11:40:15.771Z,99498.25
2022-09-16T11:42:47.473Z,99507.63
2022-09-16T11:45:35.064Z,99507.16
2022-09-16T11:48:18.548Z,99508.63
2022-09-16T11:51:12.592Z,99502.63
2022-09-16T11:54:02.277Z,99497.53
2022-09-16T11:56:42.027Z,99485.22
2022-09-16T11:59:26.803Z,99469.47
2022-09-16T12:02:21.521Z,99469.47
2022-09-16T12:04:53.764Z,99469.28
2022-09-16T12:07:32.320Z,99464.75
2022-09-16T12:10:05.371Z,99466.97
2022-09-16T12:12:39.423Z,99469.97
2022-09-16T12:15:16.739Z,99472.78
2022-09-16T12:17:58.395Z,99465.28
2022-09-16T12:20:31.564Z,99441.13
2022-09-16T12:23:04.717Z,99446.50
2022-09-16T12:25:38.345Z,99436.22
2022-09-16T12:28:13.417Z,99433.00
2022-09-16T12:30:46.086Z,99423.06
2022-09-16T12:33:26.295Z,99425.00
2022-09-16T12:36:00.030Z,99438.59
2022-09-16T12:38:26.843Z,99418.88
2022-09-16T12:41:12.261Z,99441.06
2022-09-16T12:43:44.886Z,99430.47
2022-09-16T12:46:33.966Z,99425.47
2022-09-16T12:49:14.560Z,99419.78
2022-09-16T12:51:52.599Z,99412.84
2022-09-16T12:54:51.280Z,99407.59
2022-09-16T12:57:53.148Z,99408.88
2022-09-16T13:01:04.884Z,99405.91
2022-09-16T13:03:32.842Z,99412.38
2022-09-16T13:06:04.176Z,99412.81
2022-09-16T13:08:31.888Z,99422.53
2022-09-16T13:11:38.987Z,99409.59
2022-09-16T13:13:57.155Z,99401.69
2022-09-16T13:16:35.476Z,99403.56
2022-09-16T13:19:55.893Z,99392.78
2022-09-16T13:22:32.350Z,99382.00
2022-09-16T13:25:09.399Z,99379.69
2022-09-16T13:27:38.345Z,99377.91
2022-09-16T13:30:16.875Z,99365.91
2022-09-16T13:32:52.625Z,99366.88
2022-09-16T13:35:24.544Z,99355.94
2022-09-16T13:37:54.447Z,99337.97
2022-09-16T13:40:25.062Z,99355.53
2022-09-16T13:43:07.935Z,99334.94
2022-09-16T13:45:39.997Z,99341.75
2022-09-16T13:48:13.625Z,99336.84
2022-09-16T13:51:00.600Z,99348.31
2022-09-16T13:53:32.455Z,99322.59
2022-09-16T13:56:10.790Z,99347.53
2022-09-16T13:58:47.067Z,99326.72
2022-09-16T14:01:28.029Z,99330.03
2022-09-16T14:04:08.854Z,99350.13
2022-09-16T14:06:51.600Z,99366.56
2022-09-16T14:09:26.974Z,99387.63
2022-09-16T14:12:18.900Z,99391.28
2022-09-16T14:14:47.861Z,99393.75
2022-09-16T14:17:18.650Z,99396.59
2022-09-16T14:19:52.446Z,99388.16
2022-09-16T14:22:26.731Z,99389.94
2022-09-16T14:25:05.780Z,99383.19
2022-09-16T14:27:40.223Z,99384.66
2022-09-16T14:30:14.871Z,99391.75
2022-09-16T14:32:41.497Z,99398.81
2022-09-16T14:35:21.003Z,99391.38
2022-09-16T14:37:50.500Z,99399.38
2022-09-16T14:40:19.989Z,99399.72
2022-09-16T14:43:04.533Z,99401.91
2022-09-16T14:45:32.131Z,99419.03
2022-09-16T14:48:01.594Z,99423.56
2022-09-16T14:50:36.131Z,99424.13
2022-09-16T14:53:06.069Z,99414.69
2022-09-16T14:55:36.239Z,99407.44
2022-09-16T14:58:05.685Z,99401.84
2022-09-16T15:00:54.326Z,99410.75
2022-09-16T15:03:35.089Z,99402.00
2022-09-16T15:06:06.894Z,99410.97
2022-09-16T15:09:15.502Z,99412.44
2022-09-16T15:11:52.404Z,99401.28
2022-09-16T15:14:19.337Z,99406.88
2022-09-16T15:16:49.558Z,99395.97
2022-09-16T15:19:21.242Z,99402.22
2022-09-16T15:21:47.989Z,99391.19
2022-09-16T15:24:28.392Z,99383.56
2022-09-16T15:26:55.424Z,99385.13
2022-09-16T15:29:24.930Z,99375.34
2022-09-16T15:31:51.546Z,99372.31
2022-09-16T15:34:21.038Z,99386.09
2022-09-16T15:36:50.762Z,99386.94
2022-09-16T15:39:31.031Z,99375.56
2022-09-16T15:42:25.469Z,99377.47
2022-09-16T15:44:55.163Z,99382.50
2022-09-16T15:47:25.388Z,99374.72
2022-09-16T15:50:03.958Z,99372.38
2022-09-16T15:52:48.939Z,99367.91
2022-09-16T15:55:28.420Z,99365.78
2022-09-16T15:58:06.665Z,99366.00
2022-09-16T16:01:10.111Z,99377.03
2022-09-16T16:03:57.638Z,99375.56
2022-09-16T16:06:51.448Z,99367.25
2022-09-16T16:09:27.436Z,99370.03
2022-09-16T16:11:57.588Z,99366.63
2022-09-16T16:14:25.231Z,99377.69
2022-09-16T16:17:11.750Z,99384.63
2022-09-16T16:19:39.182Z,99364.25
2022-09-16T16:22:07.050Z,99383.56
2022-09-16T16:24:33.709Z,99369.38
2022-09-16T16:27:00.329Z,99369.06
2022-09-16T16:29:27.015Z,99367.19
2022-09-16T16:32:07.644Z,99370.38
2022-09-16T16:34:36.453Z,99358.28
2022-09-16T16:37:03.998Z,99371.84
2022-09-16T16:39:30.700Z,99373.72
2022-09-16T16:41:57.599Z,99355.78
2022-09-16T16:44:24.889Z,99366.53
2022-09-16T16:46:52.662Z,99365.47
2022-09-16T16:49:19.621Z,99374.84
2022-09-16T16:51:48.589Z,99374.94
2022-09-16T16:54:15.240Z,99381.63
2022-09-16T16:56:42.313Z,99381.94
2022-09-16T16:59:09.074Z,99386.94
2022-09-16T17:01:36.081Z,99379.97
2022-09-16T17:04:03.072Z,99394.75
2022-09-16T17:06:35.018Z,99385.75
2022-09-16T17:09:01.905Z,99391.53
2022-09-16T17:11:28.735Z,99390.63
2022-09-16T17:14:04.920Z,99395.91
2022-09-16T17:16:31.853Z,99392.66
2022-09-16T17:19:00.150Z,99386.78
2022-09-16T17:21:34.423Z,99388.81
2022-09-16T17:24:01.260Z,99395.97
2022-09-16T17:26:28.289Z,99385.94
2022-09-16T17:28:57.836Z,99385.00
2022-09-16T17:31:29.964Z,99396.50
2022-09-16T17:33:58.763Z,99386.47
2022-09-16T17:36:26.308Z,99385.19
2022-09-16T17:39:20.899Z,99377.34
2022-09-16T17:41:51.535Z,99385.28
2022-09-16T17:44:19.049Z,99385.28
2022-09-16T17:46:46.882Z,99389.28
2022-09-16T17:49:17.029Z,99398.13
2022-09-16T17:51:43.973Z,99384.47
2022-09-16T17:54:11.166Z,99394.66
2022-09-16T17:56:37.806Z,99391.03
2022-09-16T17:59:04.515Z,99395.91
2022-09-16T18:01:31.749Z,99387.53
2022-09-16T18:04:02.930Z,99396.41
2022-09-16T18:06:32.161Z,99398.75
2022-09-16T18:09:04.015Z,99405.19
2022-09-16T18:11:31.038Z,99401.19
2022-09-16T18:13:59.737Z,99402.16
2022-09-16T18:16:27.694Z,99410.47
2022-09-16T18:19:04.111Z,99418.25
2022-09-16T18:21:31.513Z,99410.47
2022-09-16T18:24:00.580Z,99418.53
2022-09-16T18:26:35.083Z,99415.00
2022-09-16T18:29:11.168Z,99425.66
2022-09-16T18:31:43.634Z,99433.00
2022-09-16T18:34:10.966Z,99427.28
2022-09-16T18:36:39.120Z,99442.69
2022-09-16T18:39:07.523Z,99442.84
2022-09-16T18:41:36.449Z,99441.78
2022-09-16T18:44:07.489Z,99442.03
2022-09-16T18:46:36.416Z,99456.59
2022-09-16T18:49:06.452Z,99458.59
2022-09-16T18:51:44.339Z,99462.66
2022-09-16T18:54:18.356Z,99472.66
2022-09-16T18:56:45.503Z,99495.00
2022-09-16T18:59:23.395Z,99502.78
2022-09-16T19:01:52.073Z,99500.03
2022-09-16T19:04:21.303Z,99506.53
2022-09-16T19:06:51.873Z,99509.13
2022-09-16T19:09:20.788Z,99516.44
2022-09-16T19:11:47.778Z,99519.94
2022-09-16T19:14:15.095Z,99520.75
2022-09-16T19:16:43.347Z,99523.88
2022-09-16T19:19:11.207Z,99526.19
2022-09-16T19:21:38.281Z,99538.63
2022-09-16T19:24:07.737Z,99538.22
2022-09-16T19:26:43.728Z,99546.13
2022-09-16T19:29:10.932Z,99547.91
2022-09-16T19:31:40.729Z,99550.22
2022-09-16T19:34:10.057Z,99553.56
2022-09-16T19:36:37.596Z,99555.94
2022-09-16T19:39:05.627Z,99558.72
2022-09-16T19:41:34.268Z,99561.84
2022-09-16T19:44:03.640Z,99554.25
2022-09-16T19:46:33.995Z,99568.69
2022-09-16T19:49:00.756Z,99581.69
2022-09-16T19:51:29.092Z,99567.63
2022-09-16T19:54:01.505Z,99580.78
2022-09-16T19:56:30.317Z,99584.59
2022-09-16T19:59:01.368Z,99587.59
2022-09-16T20:01:33.411Z,99595.22
2022-09-16T20:04:01.307Z,99597.53
2022-09-16T20:06:31.756Z,99596.94
2022-09-16T20:09:03.253Z,99604.59
2022-09-16T20:11:32.545Z,99604.22
2022-09-16T20:14:01.203Z,99593.91
2022-09-16T20:16:34.386Z,99584.66
2022-09-16T20:19:01.987Z,99583.44
2022-09-16T20:21:29.827Z,99583.06
2022-09-16T20:23:56.776Z,99583.28
2022-09-16T20:26:23.923Z,99596.06
2022-09-16T20:28:52.120Z,99591.75
2022-09-16T20:31:25.419Z,99599.78
2022-09-16T20:33:54.108Z,99602.47
2022-09-16T20:36:31.250Z,99583.72
2022-09-16T20:39:09.054Z,99589.72
2022-09-16T20:41:39.161Z,99596.28
2022-09-16T20:44:06.636Z,99603.19
2022-09-16T20:46:39.589Z,99603.13
2022-09-16T20:49:25.332Z,99617.16
2022-09-16T20:51:52.091Z,99613.38
2022-09-16T20:54:18.842Z,99610.50
2022-09-16T20:56:56.603Z,99610.78
2022-09-16T20:59:23.428Z,99615.69
2022-09-16T21:01:50.194Z,99611.97
2022-09-16T21:04:23.021Z,99622.88
2022-09-16T21:06:49.669Z,99626.59
2022-09-16T21:09:16.462Z,99635.03
2022-09-16T21:11:45.923Z,99638.69
2022-09-16T21:14:15.204Z,99629.84
2022-09-16T21:16:43.097Z,99637.22
2022-09-16T21:19:10.802Z,99634.59
2022-09-16T21:21:40.502Z,99624.22
2022-09-16T21:24:15.096Z,99649.34
2022-09-16T21:26:41.929Z,99645.03
2022-09-16T21:29:10.909Z,99644.44
2022-09-16T21:31:42.063Z,99647.91
2022-09-16T21:34:14.280Z,99657.97
2022-09-16T21:36:41.461Z,99672.44
2022-09-16T21:39:08.534Z,99656.19
2022-09-16T21:41:35.340Z,99654.16
2022-09-16T21:44:03.790Z,99653.72
2022-09-16T21:46:43.116Z,99661.13
2022-09-16T21:49:19.214Z,99658.69
2022-09-16T21:51:45.864Z,99661.97
2022-09-16T21:54:19.075Z,99657.00
2022-09-16T21:56:46.685Z,99669.56
2022-09-16T21:59:13.292Z,99671.81
2022-09-16T22:01:39.891Z,99677.78
2022-09-16T22:04:11.356Z,99682.09
2022-09-16T22:06:37.931Z,99683.72
2022-09-16T22:09:07.773Z,99680.00
2022-09-16T22:11:35.950Z,99694.56
2022-09-16T22:14:07.307Z,99686.38
2022-09-16T22:16:37.189Z,99678.41
2022-09-16T22:19:12.891Z,99678.66
2022-09-16T22:21:44.684Z,99676.63
2022-09-16T22:24:11.628Z,99673.75
2022-09-16T22:26:38.940Z,99681.34
2022-09-16T22:29:09.591Z,99684.22
2022-09-16T22:31:37.653Z,99697.25
2022-09-16T22:34:04.659Z,99683.25
2022-09-16T22:36:35.724Z,99690.44
2022-09-16T22:39:10.766Z,99687.56
2022-09-16T22:41:37.392Z,99698.44
2022-09-16T22:44:11.776Z,99700.25
2022-09-16T22:46:43.915Z,99691.63
2022-09-16T22:49:11.042Z,99692.38
2022-09-16T22:51:38.300Z,99693.63
2022-09-16T22:54:05.290Z,99696.69
2022-09-16T22:56:33.465Z,99690.72
2022-09-16T22:59:02.161Z,99685.97
2022-09-16T23:01:31.977Z,99693.56
2022-09-16T23:04:00.799Z,99694.44
2022-09-16T23:06:29.809Z,99705.53
2022-09-16T23:08:56.821Z,99703.25
2022-09-16T23:11:29.227Z,99706.31
2022-09-16T23:13:56.385Z,99701.56
2022-09-16T23:16:26.962Z,99704.00
2022-09-16T23:19:00.081Z,99702.91
2022-09-16T23:21:26.772Z,99702.31
2022-09-16T23:24:00.367Z,99711.31
2022-09-16T23:26:30.446Z,99709.69
2022-09-16T23:28:58.965Z,99703.53
2022-09-16T23:31:28.000Z,99708.44
2022-09-16T23:33:55.310Z,99711.94
2022-09-16T23:36:25.819Z,99707.59
2022-09-16T23:38:53.719Z,99709.28
2022-09-16T23:41:23.493Z,99700.25
2022-09-16T23:43:50.458Z,99706.56
2022-09-16T23:46:19.328Z,99709.09
2022-09-16T23:48:46.719Z,99703.72
2022-09-16T23:51:14.050Z,99701.66
2022-09-16T23:53:42.492Z,99708.28
2022-09-16T23:56:11.372Z,99700.44
2022-09-16T23:58:38.270Z,99703.28
